Preflight/Weather

The current temperature at Deer Valley airport is 42°C  or 108°F

Deer Valley Metar:

KDVT 102053Z 25008G19KT 220V280 10SM CLR 42/03 A2988 RMK AO2 SLP089 T04170028 58017

Terminal Area Forecast for Phoenix:

TAF AMD KPHX 102050Z 1021/1124 28009G18KT P6SM FEW120 FM110200 26007KT P6SM SKC FM111100 10005KT P6SM FEW120 FM112000 26008KT P6SM FEW150